Time;durP1;ratioP1;P1;durP2;ratioP2;P2;SDS_P1;SDS_P2;PMS_P1;PMS_P2;Temp;Humidity;BMP_temperature;BMP_pressure;BME280_temperature;BME280_humidity;BME280_pressure;Samples;Min_cycle;Max_cycle;Signal;HPM_P1;HPM_P2
2023/09/14 00:01:31;;;;;;;879.08;793.33;;;;;;;;;;5037470;28;20046;-68
2023/09/14 00:03:57;;;;;;;879.55;793.40;;;;;;;;;;5019834;28;20128;-69
2023/09/14 00:06:24;;;;;;;879.85;792.17;;;;;;;;;;5037687;28;20398;-68
2023/09/14 00:08:51;;;;;;;873.20;785.22;;;;;;;;;;5041532;28;20037;-68
2023/09/14 00:11:19;;;;;;;864.35;779.17;;;;;;;;;;5037155;28;20107;-67
2023/09/14 00:13:46;;;;;;;875.00;788.03;;;;;;;;;;5042040;28;20048;-68
2023/09/14 00:16:12;;;;;;;879.17;791.50;;;;;;;;;;5042260;28;20037;-70
2023/09/14 00:18:39;;;;;;;876.28;788.55;;;;;;;;;;5037152;28;20048;-68
2023/09/14 00:21:06;;;;;;;883.70;794.03;;;;;;;;;;5039851;28;20052;-68
2023/09/14 00:23:32;;;;;;;873.40;787.35;;;;;;;;;;5041576;28;20041;-69
2023/09/14 00:25:59;;;;;;;875.03;786.75;;;;;;;;;;5038772;28;20061;-68
2023/09/14 00:28:26;;;;;;;877.50;789.92;;;;;;;;;;5035808;28;20033;-68
2023/09/14 00:30:53;;;;;;;875.60;787.90;;;;;;;;;;5040389;28;20045;-69
2023/09/14 00:33:20;;;;;;;872.45;784.30;;;;;;;;;;5037988;28;20071;-68
2023/09/14 00:35:47;;;;;;;863.80;778.17;;;;;;;;;;5041124;28;20064;-69
2023/09/14 00:38:14;;;;;;;875.95;787.70;;;;;;;;;;5020807;28;20057;-69
2023/09/14 00:40:41;;;;;;;861.05;775.03;;;;;;;;;;5039805;28;20059;-68
2023/09/14 00:43:07;;;;;;;874.42;786.60;;;;;;;;;;5032221;28;20038;-69
2023/09/14 00:45:34;;;;;;;864.08;777.90;;;;;;;;;;5033931;28;20104;-68
2023/09/14 00:48:02;;;;;;;872.45;783.25;;;;;;;;;;5039719;28;20057;-69
2023/09/14 00:50:30;;;;;;;860.70;774.05;;;;;;;;;;5037499;28;20054;-70
2023/09/14 00:52:56;;;;;;;863.22;777.05;;;;;;;;;;5038272;28;20053;-69
2023/09/14 00:55:23;;;;;;;862.92;776.33;;;;;;;;;;5040291;28;20128;-70
2023/09/14 00:57:51;;;;;;;856.50;770.15;;;;;;;;;;5032547;28;20045;-69
2023/09/14 01:00:18;;;;;;;863.50;777.17;;;;;;;;;;5037894;28;20087;-69
2023/09/14 01:02:46;;;;;;;858.95;772.53;;;;;;;;;;5038201;28;20041;-69
2023/09/14 01:05:16;;;;;;;865.20;777.75;;;;;;;;;;5039644;28;20049;-70
2023/09/14 01:07:43;;;;;;;865.25;778.97;;;;;;;;;;5038239;28;20573;-68
2023/09/14 01:10:10;;;;;;;854.10;766.85;;;;;;;;;;5037544;28;20402;-68
2023/09/14 01:12:37;;;;;;;854.85;767.22;;;;;;;;;;5038385;28;20045;-68
2023/09/14 01:15:09;;;;;;;869.22;779.20;;;;;;;;;;5041214;28;20048;-69
2023/09/14 01:17:45;;;;;;;858.85;773.67;;;;;;;;;;5036384;28;20499;-69
2023/09/14 01:20:22;;;;;;;861.17;776.50;;;;;;;;;;5034505;28;20057;-68
2023/09/14 01:22:58;;;;;;;863.35;777.65;;;;;;;;;;5035823;28;20463;-69
2023/09/14 01:25:40;;;;;;;860.38;774.28;;;;;;;;;;5018335;28;20053;-68
2023/09/14 01:28:11;;;;;;;864.88;779.58;;;;;;;;;;5037349;28;20498;-68
2023/09/14 01:30:39;;;;;;;880.05;792.60;;;;;;;;;;5047287;28;20061;-70
2023/09/14 01:33:06;;;;;;;875.55;785.65;;;;;;;;;;5038973;28;20099;-67
2023/09/14 01:35:42;;;;;;;870.78;785.72;;;;;;;;;;5037404;28;20048;-69
2023/09/14 01:38:10;;;;;;;870.22;785.40;;;;;;;;;;5038678;28;20049;-68
2023/09/14 01:40:36;;;;;;;876.38;789.95;;;;;;;;;;5037796;28;20414;-68
2023/09/14 01:43:03;;;;;;;874.33;788.10;;;;;;;;;;5037722;28;20041;-69
2023/09/14 01:45:31;;;;;;;873.90;787.67;;;;;;;;;;5041314;28;20045;-68
2023/09/14 01:47:57;;;;;;;870.40;784.33;;;;;;;;;;5042290;28;20052;-68
2023/09/14 01:50:24;;;;;;;861.35;776.53;;;;;;;;;;5027877;28;20044;-68
2023/09/14 01:52:52;;;;;;;854.80;769.90;;;;;;;;;;5044077;28;20486;-67
2023/09/14 01:55:19;;;;;;;859.45;775.55;;;;;;;;;;5027004;28;20053;-68
2023/09/14 01:57:46;;;;;;;867.75;782.55;;;;;;;;;;5044014;28;20049;-67
2023/09/14 02:00:13;;;;;;;879.47;789.40;;;;;;;;;;5043461;28;20037;-70
2023/09/14 02:03:02;;;;;;;873.30;787.58;;;;;;;;;;3688740;22;20119;-66
2023/09/14 02:05:28;;;;;;;870.15;787.80;;;;;;;;;;4969376;28;20039;-66
2023/09/14 02:07:55;;;;;;;859.05;776.97;;;;;;;;;;4967463;28;20122;-65
2023/09/14 02:10:22;;;;;;;871.58;789.72;;;;;;;;;;4964926;28;20050;-66
2023/09/14 02:12:49;;;;;;;854.70;772.80;;;;;;;;;;4965926;28;20051;-66
2023/09/14 02:15:16;;;;;;;867.30;781.47;;;;;;;;;;4982242;28;20059;-66
2023/09/14 02:17:44;;;;;;;858.72;776.90;;;;;;;;;;4965781;28;20114;-64
2023/09/14 02:20:11;;;;;;;863.17;780.97;;;;;;;;;;4966395;28;20134;-64
2023/09/14 02:22:37;;;;;;;859.97;778.20;;;;;;;;;;4964129;28;20584;-66
2023/09/14 02:25:04;;;;;;;865.03;780.35;;;;;;;;;;4966118;28;20105;-68
2023/09/14 02:27:33;;;;;;;857.85;776.03;;;;;;;;;;4973741;28;20054;-65
2023/09/14 02:30:00;;;;;;;863.20;779.47;;;;;;;;;;4964207;28;20034;-66
2023/09/14 02:32:27;;;;;;;860.15;778.40;;;;;;;;;;4969061;28;20077;-67
2023/09/14 02:34:54;;;;;;;846.55;764.25;;;;;;;;;;4962405;28;20496;-65
2023/09/14 02:37:20;;;;;;;854.22;772.20;;;;;;;;;;4961491;28;20051;-67
2023/09/14 02:39:47;;;;;;;871.15;788.47;;;;;;;;;;4963650;28;20043;-67
2023/09/14 02:42:14;;;;;;;860.05;777.17;;;;;;;;;;4956855;28;20086;-66
2023/09/14 02:44:40;;;;;;;862.63;780.67;;;;;;;;;;4964367;28;20059;-66
2023/09/14 02:47:07;;;;;;;871.75;788.10;;;;;;;;;;4969324;28;20589;-67
2023/09/14 02:49:34;;;;;;;853.45;772.15;;;;;;;;;;4965250;28;20057;-65
2023/09/14 02:52:02;;;;;;;853.33;770.95;;;;;;;;;;4962980;28;20046;-65
2023/09/14 02:54:28;;;;;;;873.00;789.40;;;;;;;;;;4964880;28;20101;-67
2023/09/14 02:56:55;;;;;;;850.83;769.05;;;;;;;;;;4968218;28;20097;-66
2023/09/14 02:59:22;;;;;;;863.10;778.53;;;;;;;;;;4961471;28;20051;-67
2023/09/14 03:01:49;;;;;;;849.35;768.38;;;;;;;;;;4965246;28;20073;-66
2023/09/14 03:04:18;;;;;;;854.15;772.28;;;;;;;;;;4954002;28;20078;-66
2023/09/14 03:06:45;;;;;;;860.40;777.70;;;;;;;;;;4953609;28;20110;-65
2023/09/14 03:09:12;;;;;;;872.88;786.10;;;;;;;;;;4963861;28;20050;-69
2023/09/14 03:11:40;;;;;;;851.28;769.97;;;;;;;;;;4970213;28;20134;-65
2023/09/14 03:14:08;;;;;;;852.60;771.55;;;;;;;;;;4960387;28;20062;-66
2023/09/14 03:16:34;;;;;;;851.90;770.35;;;;;;;;;;4961395;28;20541;-65
2023/09/14 03:19:02;;;;;;;851.20;769.17;;;;;;;;;;4971179;28;20046;-66
2023/09/14 03:21:30;;;;;;;863.25;779.25;;;;;;;;;;4970101;28;20456;-65
2023/09/14 03:23:57;;;;;;;857.08;775.03;;;;;;;;;;4962635;28;20497;-71
2023/09/14 03:26:27;;;;;;;848.83;767.88;;;;;;;;;;4960959;28;20043;-66
2023/09/14 03:28:54;;;;;;;850.33;767.95;;;;;;;;;;4963118;28;20106;-63
2023/09/14 03:31:21;;;;;;;851.47;769.72;;;;;;;;;;4965134;28;20058;-66
2023/09/14 03:33:54;;;;;;;847.42;766.40;;;;;;;;;;4962978;28;20055;-65
2023/09/14 03:36:21;;;;;;;846.75;764.20;;;;;;;;;;4955494;28;20054;-67
2023/09/14 03:38:48;;;;;;;842.00;761.45;;;;;;;;;;4965569;28;20062;-67
2023/09/14 03:41:18;;;;;;;857.58;774.33;;;;;;;;;;4961214;28;20067;-68
2023/09/14 03:43:45;;;;;;;828.25;747.60;;;;;;;;;;4969459;28;20074;-65
2023/09/14 03:46:15;;;;;;;844.75;762.45;;;;;;;;;;4969988;28;20102;-64
2023/09/14 03:48:42;;;;;;;853.10;771.35;;;;;;;;;;4970142;28;20050;-65
2023/09/14 03:51:10;;;;;;;866.80;778.15;;;;;;;;;;4962127;28;20053;-66
2023/09/14 03:53:36;;;;;;;861.70;778.65;;;;;;;;;;4962795;28;20568;-66
2023/09/14 03:56:03;;;;;;;851.63;769.17;;;;;;;;;;4964302;28;20500;-66
2023/09/14 03:58:31;;;;;;;860.30;778.15;;;;;;;;;;4964243;28;20122;-66
2023/09/14 04:00:59;;;;;;;856.00;771.75;;;;;;;;;;4959916;28;20044;-68
2023/09/14 04:03:27;;;;;;;851.72;768.65;;;;;;;;;;4962911;28;20138;-65
2023/09/14 04:05:54;;;;;;;853.75;770.63;;;;;;;;;;4965013;28;20552;-64
2023/09/14 04:08:23;;;;;;;842.60;760.58;;;;;;;;;;4961962;28;20079;-64
2023/09/14 04:10:51;;;;;;;841.08;758.55;;;;;;;;;;4960264;28;20500;-65
2023/09/14 04:13:27;;;;;;;841.55;759.30;;;;;;;;;;4959937;28;20102;-63
2023/09/14 04:15:54;;;;;;;846.40;764.03;;;;;;;;;;4954835;28;20043;-67
2023/09/14 04:18:22;;;;;;;857.80;773.85;;;;;;;;;;4962074;28;20058;-65
2023/09/14 04:20:49;;;;;;;858.15;772.85;;;;;;;;;;4969961;28;20125;-64
2023/09/14 04:23:16;;;;;;;1707.63;788.78;;;;;;;;;;4960392;28;20067;-66
2023/09/14 04:25:47;;;;;;;854.53;767.78;;;;;;;;;;4961097;28;20059;-62
2023/09/14 04:28:14;;;;;;;850.80;765.83;;;;;;;;;;4945247;28;20046;-66
2023/09/14 04:30:48;;;;;;;845.95;763.40;;;;;;;;;;4966819;28;20551;-63
2023/09/14 04:33:16;;;;;;;842.72;757.72;;;;;;;;;;4962530;28;20500;-65
2023/09/14 04:35:43;;;;;;;1999.90;863.65;;;;;;;;;;4963830;28;20058;-63
2023/09/14 04:38:10;;;;;;;1999.90;808.58;;;;;;;;;;4967685;28;20061;-64
2023/09/14 04:40:37;;;;;;;1127.85;767.65;;;;;;;;;;4966504;28;20129;-65
2023/09/14 04:43:05;;;;;;;969.33;755.35;;;;;;;;;;4967281;28;20504;-63
2023/09/14 04:45:33;;;;;;;1020.40;763.35;;;;;;;;;;4969216;28;20054;-62
2023/09/14 04:48:00;;;;;;;848.42;756.45;;;;;;;;;;4970188;28;20083;-64
2023/09/14 04:50:27;;;;;;;843.22;758.67;;;;;;;;;;4967879;28;20052;-66
2023/09/14 04:52:55;;;;;;;856.53;767.22;;;;;;;;;;4967009;28;20130;-64
2023/09/14 04:55:23;;;;;;;837.03;752.10;;;;;;;;;;4949926;28;20043;-65
2023/09/14 04:57:49;;;;;;;836.08;752.22;;;;;;;;;;4969308;28;20062;-64
2023/09/14 05:00:17;;;;;;;852.45;763.17;;;;;;;;;;4962926;28;20058;-65
2023/09/14 05:02:45;;;;;;;844.67;752.65;;;;;;;;;;4960646;28;20669;-65
2023/09/14 05:05:12;;;;;;;844.30;762.03;;;;;;;;;;4962758;28;20055;-65
2023/09/14 05:07:41;;;;;;;855.83;773.25;;;;;;;;;;4966592;28;20047;-66
2023/09/14 05:10:08;;;;;;;857.50;773.92;;;;;;;;;;4944014;28;20133;-66
2023/09/14 05:12:35;;;;;;;847.95;759.83;;;;;;;;;;4964720;28;20117;-63
2023/09/14 05:15:02;;;;;;;836.63;753.20;;;;;;;;;;4966668;28;20168;-65
2023/09/14 05:17:29;;;;;;;839.88;754.55;;;;;;;;;;4972111;28;20057;-66
2023/09/14 05:19:56;;;;;;;843.20;758.65;;;;;;;;;;4957665;28;20070;-65
2023/09/14 05:22:25;;;;;;;848.22;765.15;;;;;;;;;;4973291;28;20774;-66
2023/09/14 05:24:53;;;;;;;836.53;755.15;;;;;;;;;;4970463;28;20049;-65
2023/09/14 05:27:20;;;;;;;849.50;764.75;;;;;;;;;;4973107;28;20159;-64
2023/09/14 05:29:46;;;;;;;856.17;773.30;;;;;;;;;;4973095;28;20489;-64
2023/09/14 05:32:13;;;;;;;859.45;776.67;;;;;;;;;;4967901;28;20122;-64
2023/09/14 05:34:41;;;;;;;857.63;770.00;;;;;;;;;;4974007;28;20093;-65
2023/09/14 05:37:08;;;;;;;855.70;772.92;;;;;;;;;;4971112;28;20051;-66
2023/09/14 05:39:35;;;;;;;839.95;757.58;;;;;;;;;;4967489;28;20050;-64
2023/09/14 05:42:02;;;;;;;844.53;759.92;;;;;;;;;;4966053;28;20058;-65
2023/09/14 05:44:29;;;;;;;859.35;761.85;;;;;;;;;;4963748;28;20051;-65
2023/09/14 05:46:57;;;;;;;856.55;772.53;;;;;;;;;;4962706;28;20074;-64
2023/09/14 05:49:24;;;;;;;858.97;774.55;;;;;;;;;;4972744;28;20071;-64
2023/09/14 05:51:51;;;;;;;856.63;774.15;;;;;;;;;;4972436;28;20046;-65
2023/09/14 05:54:18;;;;;;;845.38;759.00;;;;;;;;;;4963666;28;20053;-61
2023/09/14 05:56:45;;;;;;;858.40;772.15;;;;;;;;;;4972098;28;20065;-63
2023/09/14 05:59:15;;;;;;;853.42;770.28;;;;;;;;;;4971280;28;20042;-61
2023/09/14 06:01:57;;;;;;;849.65;766.72;;;;;;;;;;4953762;28;20130;-65
2023/09/14 06:04:24;;;;;;;850.47;767.53;;;;;;;;;;4962974;28;20054;-65
2023/09/14 06:06:51;;;;;;;861.47;775.00;;;;;;;;;;4961714;28;20070;-64
2023/09/14 06:09:18;;;;;;;860.63;769.03;;;;;;;;;;4972811;28;20383;-64
2023/09/14 06:11:45;;;;;;;861.20;778.10;;;;;;;;;;4966298;28;20050;-62
2023/09/14 06:14:11;;;;;;;868.88;784.03;;;;;;;;;;4959822;28;20098;-61
2023/09/14 06:16:38;;;;;;;865.95;781.03;;;;;;;;;;4966365;28;20054;-65
2023/09/14 06:19:05;;;;;;;861.20;776.80;;;;;;;;;;4969603;28;20427;-65
2023/09/14 06:21:32;;;;;;;872.83;788.72;;;;;;;;;;4967087;28;20039;-64
2023/09/14 06:24:00;;;;;;;858.75;773.40;;;;;;;;;;4972614;28;20043;-64
2023/09/14 06:26:29;;;;;;;862.00;777.47;;;;;;;;;;4972112;28;20073;-64
2023/09/14 06:28:56;;;;;;;860.28;777.15;;;;;;;;;;4965949;28;20047;-62
2023/09/14 06:31:26;;;;;;;857.25;765.97;;;;;;;;;;4971322;28;20563;-64
2023/09/14 06:33:53;;;;;;;859.08;771.15;;;;;;;;;;4961567;28;20522;-62
2023/09/14 06:36:20;;;;;;;863.08;775.35;;;;;;;;;;4964999;28;26890;-65
2023/09/14 06:38:47;;;;;;;859.70;774.10;;;;;;;;;;4970554;28;20058;-64
2023/09/14 06:41:17;;;;;;;853.58;769.33;;;;;;;;;;4968667;28;20051;-63
2023/09/14 06:43:46;;;;;;;885.92;797.67;;;;;;;;;;4961506;28;20051;-64
2023/09/14 06:46:14;;;;;;;884.20;794.97;;;;;;;;;;4969333;28;20047;-65
2023/09/14 06:48:40;;;;;;;886.83;801.22;;;;;;;;;;4966184;28;20125;-64
2023/09/14 06:51:07;;;;;;;900.85;812.22;;;;;;;;;;4972720;28;20047;-65
2023/09/14 06:53:35;;;;;;;897.85;812.83;;;;;;;;;;4963254;28;20043;-64
2023/09/14 06:56:08;;;;;;;897.65;807.63;;;;;;;;;;4962291;28;20102;-65
2023/09/14 06:58:35;;;;;;;896.33;811.75;;;;;;;;;;4970646;28;20038;-63
2023/09/14 07:01:04;;;;;;;896.72;812.85;;;;;;;;;;4970258;28;20070;-64
2023/09/14 07:03:32;;;;;;;909.63;824.20;;;;;;;;;;4963781;28;20078;-64
2023/09/14 07:06:00;;;;;;;914.75;827.83;;;;;;;;;;4966015;28;20074;-65
2023/09/14 07:08:27;;;;;;;926.35;840.30;;;;;;;;;;4968457;28;20047;-65
2023/09/14 07:10:54;;;;;;;940.58;845.58;;;;;;;;;;4963546;28;20051;-64
2023/09/14 07:13:21;;;;;;;939.47;850.22;;;;;;;;;;4963094;28;20122;-64
2023/09/14 07:15:47;;;;;;;951.22;848.03;;;;;;;;;;4966272;28;20040;-65
2023/09/14 07:18:25;;;;;;;1008.13;855.85;;;;;;;;;;4970147;28;20058;-62
2023/09/14 07:20:52;;;;;;;944.63;857.03;;;;;;;;;;4963119;28;20047;-65
2023/09/14 07:23:19;;;;;;;956.47;857.30;;;;;;;;;;4969704;28;20048;-65
2023/09/14 07:25:47;;;;;;;948.03;845.20;;;;;;;;;;4967331;28;20115;-63
2023/09/14 07:28:14;;;;;;;951.75;857.60;;;;;;;;;;4963908;28;20126;-64
2023/09/14 07:30:44;;;;;;;948.88;860.33;;;;;;;;;;4963683;28;20488;-63
2023/09/14 07:33:11;;;;;;;960.80;867.63;;;;;;;;;;4964119;28;20446;-65
2023/09/14 07:35:39;;;;;;;967.65;878.05;;;;;;;;;;4966742;28;20053;-65
2023/09/14 07:38:12;;;;;;;1148.25;871.33;;;;;;;;;;4961041;28;20390;-66
2023/09/14 07:40:39;;;;;;;948.40;862.10;;;;;;;;;;4970354;28;20055;-65
2023/09/14 07:43:06;;;;;;;970.15;882.28;;;;;;;;;;4961162;28;20039;-66
2023/09/14 07:45:33;;;;;;;970.40;878.92;;;;;;;;;;4969983;28;20437;-66
2023/09/14 07:48:03;;;;;;;979.58;888.83;;;;;;;;;;4963888;28;20074;-65
2023/09/14 07:50:38;;;;;;;981.85;891.88;;;;;;;;;;4962434;28;20449;-65
2023/09/14 07:53:06;;;;;;;969.50;880.55;;;;;;;;;;4962097;28;20485;-65
2023/09/14 07:55:32;;;;;;;976.90;883.38;;;;;;;;;;4964501;28;20050;-65
2023/09/14 07:57:59;;;;;;;981.00;892.28;;;;;;;;;;4962393;28;20198;-65
2023/09/14 08:00:26;;;;;;;967.28;880.78;;;;;;;;;;4970709;28;20050;-65
2023/09/14 08:02:53;;;;;;;967.45;880.72;;;;;;;;;;4962363;28;20047;-65
2023/09/14 08:05:20;;;;;;;965.72;878.45;;;;;;;;;;4965508;28;20050;-66
2023/09/14 08:07:47;;;;;;;970.10;878.90;;;;;;;;;;4965211;28;20047;-66
2023/09/14 08:10:13;;;;;;;973.15;885.13;;;;;;;;;;4963310;28;20472;-64
2023/09/14 08:12:40;;;;;;;992.88;903.45;;;;;;;;;;4962592;28;20062;-65
2023/09/14 08:15:07;;;;;;;979.05;890.20;;;;;;;;;;4966404;28;20489;-65
2023/09/14 08:17:34;;;;;;;977.10;890.28;;;;;;;;;;4968689;28;20046;-64
2023/09/14 08:20:01;;;;;;;1117.72;888.63;;;;;;;;;;4955651;28;20581;-64
2023/09/14 08:22:28;;;;;;;977.35;890.63;;;;;;;;;;4968375;28;20049;-66
2023/09/14 08:24:58;;;;;;;983.10;894.17;;;;;;;;;;4961827;28;20073;-66
2023/09/14 08:27:25;;;;;;;1003.78;896.60;;;;;;;;;;4961431;28;20484;-65
2023/09/14 08:29:52;;;;;;;980.72;891.90;;;;;;;;;;4961510;28;20043;-65
2023/09/14 08:32:18;;;;;;;984.55;897.03;;;;;;;;;;4966421;28;20059;-65
2023/09/14 08:34:45;;;;;;;1000.28;910.55;;;;;;;;;;4960228;28;20583;-65
2023/09/14 08:37:12;;;;;;;995.47;906.80;;;;;;;;;;4965672;28;20039;-65
2023/09/14 08:39:39;;;;;;;987.95;899.17;;;;;;;;;;4963885;28;20058;-65
2023/09/14 08:42:05;;;;;;;991.90;900.25;;;;;;;;;;4962498;28;20051;-65
2023/09/14 08:44:33;;;;;;;992.42;896.72;;;;;;;;;;4962522;28;20093;-64
2023/09/14 08:47:01;;;;;;;978.45;889.63;;;;;;;;;;4959737;28;20035;-65
2023/09/14 08:49:30;;;;;;;990.65;903.45;;;;;;;;;;4969814;28;20042;-64
2023/09/14 08:51:58;;;;;;;998.83;909.35;;;;;;;;;;4966110;28;20507;-65
2023/09/14 08:54:25;;;;;;;991.97;902.20;;;;;;;;;;4969974;28;20507;-62
2023/09/14 08:56:52;;;;;;;983.88;894.72;;;;;;;;;;4964931;28;20050;-66
2023/09/14 08:59:20;;;;;;;968.17;880.60;;;;;;;;;;4969516;28;20062;-66
2023/09/14 09:01:50;;;;;;;973.58;885.70;;;;;;;;;;4961608;28;20055;-65
2023/09/14 09:04:17;;;;;;;986.03;887.20;;;;;;;;;;4962291;28;20039;-65
2023/09/14 09:06:44;;;;;;;979.20;892.20;;;;;;;;;;4956995;28;20456;-64
2023/09/14 09:09:14;;;;;;;995.45;905.05;;;;;;;;;;4961269;28;20050;-65
2023/09/14 09:11:40;;;;;;;1999.90;932.47;;;;;;;;;;4967216;28;20051;-65
2023/09/14 09:14:07;;;;;;;998.40;896.20;;;;;;;;;;4969477;28;20101;-66
2023/09/14 09:16:33;;;;;;;984.83;893.28;;;;;;;;;;4959630;28;20102;-64
2023/09/14 09:19:02;;;;;;;1999.90;917.80;;;;;;;;;;4966360;28;20070;-64
2023/09/14 09:21:34;;;;;;;982.63;889.53;;;;;;;;;;4963445;28;20043;-64
2023/09/14 09:24:03;;;;;;;991.10;900.97;;;;;;;;;;4962676;28;20047;-65
2023/09/14 09:26:35;;;;;;;970.65;882.42;;;;;;;;;;4958029;28;20048;-65
2023/09/14 09:29:22;;;;;;;987.38;886.97;;;;;;;;;;4961091;28;20066;-64
2023/09/14 09:31:50;;;;;;;980.78;891.55;;;;;;;;;;4945079;28;20083;-65
2023/09/14 09:34:24;;;;;;;984.20;894.85;;;;;;;;;;4966612;28;20090;-64
2023/09/14 09:36:51;;;;;;;;;;;;;;;;;;4969902;28;20041;-64
2023/09/14 09:39:17;;;;;;;983.53;890.20;;;;;;;;;;4962834;28;20479;-63
2023/09/14 09:41:45;;;;;;;972.70;885.33;;;;;;;;;;4962222;28;20035;-65
2023/09/14 09:44:14;;;;;;;979.50;893.30;;;;;;;;;;4957162;28;20133;-64
2023/09/14 09:46:42;;;;;;;973.40;885.47;;;;;;;;;;4963036;28;20438;-65
2023/09/14 09:49:17;;;;;;;978.13;889.53;;;;;;;;;;4961742;28;20524;-65
2023/09/14 09:51:45;;;;;;;972.45;886.78;;;;;;;;;;4963449;28;20049;-64
2023/09/14 09:54:11;;;;;;;978.63;889.67;;;;;;;;;;4962138;28;20062;-65
2023/09/14 09:56:38;;;;;;;970.15;884.58;;;;;;;;;;4963053;28;20752;-64
2023/09/14 09:59:09;;;;;;;980.15;893.17;;;;;;;;;;4963092;28;20051;-63
2023/09/14 10:01:37;;;;;;;1020.88;888.78;;;;;;;;;;4970372;28;20062;-65
2023/09/14 10:04:07;;;;;;;966.42;880.00;;;;;;;;;;4965807;28;20055;-64
2023/09/14 10:06:35;;;;;;;980.78;892.45;;;;;;;;;;4969961;28;20491;-64
2023/09/14 10:09:06;;;;;;;978.90;893.00;;;;;;;;;;4965418;28;20051;-63
2023/09/14 10:11:33;;;;;;;970.80;884.22;;;;;;;;;;4963390;28;20528;-65
2023/09/14 10:14:04;;;;;;;972.45;886.75;;;;;;;;;;4962130;28;20047;-65
2023/09/14 10:16:41;;;;;;;977.58;890.25;;;;;;;;;;4963348;28;20137;-65
2023/09/14 10:19:08;;;;;;;984.75;890.83;;;;;;;;;;4960906;28;20101;-72
2023/09/14 10:21:39;;;;;;;986.10;898.25;;;;;;;;;;4965751;28;20050;-64
2023/09/14 10:24:07;;;;;;;982.05;892.95;;;;;;;;;;4966638;28;20543;-65
2023/09/14 10:26:35;;;;;;;989.15;897.13;;;;;;;;;;4967415;28;20493;-62
2023/09/14 11:13:20;;;;;;;1999.90;920.60;;;;;;;;;;4547261;23;20065;-65
2023/09/14 11:15:53;;;;;;;1018.13;926.67;;;;;;;;;;4984787;28;20046;-64
2023/09/14 11:18:50;;;;;;;1021.35;929.25;;;;;;;;;;4982645;28;20042;-62
2023/09/14 11:21:31;;;;;;;1029.25;935.17;;;;;;;;;;4983095;28;20404;-64
2023/09/14 11:24:00;;;;;;;1022.05;932.95;;;;;;;;;;4982216;28;20133;-64
2023/09/14 11:26:30;;;;;;;1015.88;924.90;;;;;;;;;;4985375;28;20066;-64
2023/09/14 11:28:58;;;;;;;1008.85;914.00;;;;;;;;;;4986173;28;20129;-64
2023/09/14 11:31:33;;;;;;;1031.22;938.00;;;;;;;;;;4986773;28;20070;-64
2023/09/14 11:34:22;;;;;;;996.15;908.90;;;;;;;;;;4984296;28;20039;-64
2023/09/14 11:36:54;;;;;;;1008.13;913.45;;;;;;;;;;4984296;28;20042;-64
2023/09/14 11:39:23;;;;;;;1020.50;927.10;;;;;;;;;;4981114;28;20043;-64
2023/09/14 11:41:50;;;;;;;1006.80;920.03;;;;;;;;;;4985245;28;20616;-62
2023/09/14 11:44:21;;;;;;;1001.90;914.25;;;;;;;;;;4984369;28;20459;-65
2023/09/14 11:46:51;;;;;;;1004.72;916.33;;;;;;;;;;4984245;28;20042;-64
2023/09/14 11:49:26;;;;;;;1008.58;914.13;;;;;;;;;;4986128;28;20046;-64
2023/09/14 11:51:53;;;;;;;994.97;907.47;;;;;;;;;;4981619;28;20046;-65
2023/09/14 11:54:20;;;;;;;1029.88;917.65;;;;;;;;;;4982573;28;20038;-64
2023/09/14 11:56:48;;;;;;;997.03;905.42;;;;;;;;;;4981944;28;20133;-64
2023/09/14 11:59:31;;;;;;;997.95;905.55;;;;;;;;;;4983887;28;20046;-64
2023/09/14 12:01:59;;;;;;;996.60;897.57;;;;;;;;;;4980125;28;20051;-65
2023/09/14 12:04:28;;;;;;;1011.25;920.67;;;;;;;;;;4986084;28;20488;-66
2023/09/14 12:06:55;;;;;;;1007.60;916.38;;;;;;;;;;4982916;28;20101;-63
2023/09/14 12:09:34;;;;;;;1024.22;928.15;;;;;;;;;;4982642;28;20488;-64
2023/09/14 12:12:06;;;;;;;991.72;903.08;;;;;;;;;;4982422;28;20046;-64
2023/09/14 12:14:34;;;;;;;984.95;897.95;;;;;;;;;;4983069;28;20061;-65
2023/09/14 12:17:01;;;;;;;995.25;906.17;;;;;;;;;;4983143;28;20054;-64
2023/09/14 12:19:30;;;;;;;1035.70;913.28;;;;;;;;;;4983887;28;20404;-63
2023/09/14 12:21:56;;;;;;;992.25;901.70;;;;;;;;;;4982701;28;20069;-65
2023/09/14 12:24:24;;;;;;;1009.40;913.60;;;;;;;;;;4982864;28;20043;-64
2023/09/14 12:26:51;;;;;;;999.50;912.42;;;;;;;;;;4980989;28;20043;-63
2023/09/14 12:29:18;;;;;;;994.78;907.25;;;;;;;;;;4985685;28;20046;-63
2023/09/14 12:31:44;;;;;;;999.42;913.53;;;;;;;;;;4978098;28;20050;-63
2023/09/14 12:34:11;;;;;;;1010.58;917.08;;;;;;;;;;4982781;28;20134;-64
2023/09/14 12:36:38;;;;;;;1025.43;930.08;;;;;;;;;;4983852;28;20042;-63
2023/09/14 12:39:09;;;;;;;1014.70;924.70;;;;;;;;;;4980118;28;20422;-63
2023/09/14 12:41:36;;;;;;;1024.75;934.80;;;;;;;;;;4982017;28;20061;-63
2023/09/14 12:44:02;;;;;;;1021.95;932.28;;;;;;;;;;4982278;28;20495;-62
2023/09/14 12:46:31;;;;;;;1026.57;936.35;;;;;;;;;;4986556;28;20042;-63
2023/09/14 12:49:00;;;;;;;1029.05;939.63;;;;;;;;;;4982123;28;20435;-61
2023/09/14 12:51:27;;;;;;;1580.70;929.38;;;;;;;;;;4982003;28;20046;-63
2023/09/14 12:53:57;;;;;;;1027.82;929.47;;;;;;;;;;4980810;28;20444;-64
2023/09/14 12:56:24;;;;;;;1023.90;934.40;;;;;;;;;;4985350;28;20047;-63
2023/09/14 12:58:51;;;;;;;1017.20;929.10;;;;;;;;;;4986910;28;20053;-64
2023/09/14 13:01:18;;;;;;;1021.97;927.97;;;;;;;;;;4986896;28;20403;-64
2023/09/14 13:03:44;;;;;;;1014.80;925.20;;;;;;;;;;4982618;28;20068;-63
2023/09/14 13:06:11;;;;;;;1010.42;922.13;;;;;;;;;;4981047;28;20073;-65
2023/09/14 13:08:42;;;;;;;996.60;907.50;;;;;;;;;;4983485;28;20057;-63
2023/09/14 13:11:26;;;;;;;996.35;908.03;;;;;;;;;;4983608;28;20511;-63
2023/09/14 13:13:53;;;;;;;985.25;898.13;;;;;;;;;;4983131;28;20057;-63
2023/09/14 13:16:20;;;;;;;1006.83;919.53;;;;;;;;;;4979602;28;20045;-63
2023/09/14 13:18:47;;;;;;;994.40;907.28;;;;;;;;;;4981690;28;20488;-64
2023/09/14 13:21:15;;;;;;;994.22;902.97;;;;;;;;;;4980463;28;20046;-63
2023/09/14 13:23:42;;;;;;;986.08;894.28;;;;;;;;;;4979629;28;20043;-63
2023/09/14 13:26:08;;;;;;;996.72;899.20;;;;;;;;;;4989524;28;20121;-63
2023/09/14 13:31:38;;;;;;;970.25;882.45;;;;;;;;;;4788488;26;20058;-63
2023/09/14 13:34:05;;;;;;;970.33;881.70;;;;;;;;;;4988183;28;20051;-63
2023/09/14 13:36:32;;;;;;;975.10;884.72;;;;;;;;;;4986392;28;20053;-63
2023/09/14 13:39:00;;;;;;;959.63;871.25;;;;;;;;;;4984275;28;20516;-62
2023/09/14 13:41:27;;;;;;;969.40;877.10;;;;;;;;;;4984307;28;20214;-63
2023/09/14 13:43:54;;;;;;;972.85;883.70;;;;;;;;;;4989378;28;20554;-63
2023/09/14 13:46:20;;;;;;;973.03;884.13;;;;;;;;;;4993284;28;20487;-66
2023/09/14 13:48:53;;;;;;;978.72;886.60;;;;;;;;;;4990910;28;20042;-63
2023/09/14 13:51:20;;;;;;;974.88;882.83;;;;;;;;;;4989008;28;20442;-65
2023/09/14 13:53:47;;;;;;;959.30;871.35;;;;;;;;;;4991068;28;20058;-65
2023/09/14 13:56:13;;;;;;;977.38;889.15;;;;;;;;;;4989629;28;20069;-63
2023/09/14 13:58:40;;;;;;;977.78;891.20;;;;;;;;;;4988306;28;20047;-63
2023/09/14 14:01:07;;;;;;;978.63;890.60;;;;;;;;;;4991760;28;20121;-64
2023/09/14 14:03:34;;;;;;;976.90;885.65;;;;;;;;;;4993438;28;20043;-64
2023/09/14 14:06:01;;;;;;;966.28;879.45;;;;;;;;;;4993055;28;20043;-63
2023/09/14 14:08:27;;;;;;;970.15;883.10;;;;;;;;;;4991749;28;20062;-64
2023/09/14 14:10:54;;;;;;;975.17;885.83;;;;;;;;;;4991507;28;20051;-63
2023/09/14 14:13:21;;;;;;;976.65;887.90;;;;;;;;;;4990415;28;20582;-63
2023/09/14 14:15:49;;;;;;;973.28;884.85;;;;;;;;;;4992170;28;20042;-64
2023/09/14 14:18:16;;;;;;;984.08;893.55;;;;;;;;;;4987811;28;20053;-63
2023/09/14 14:20:43;;;;;;;967.30;878.38;;;;;;;;;;4988625;28;20078;-63
2023/09/14 14:23:10;;;;;;;971.88;883.72;;;;;;;;;;4991142;28;20704;-63
2023/09/14 14:25:38;;;;;;;980.67;892.50;;;;;;;;;;4990937;28;20057;-63
2023/09/14 14:28:06;;;;;;;974.35;886.00;;;;;;;;;;4986954;28;20077;-62
2023/09/14 14:30:32;;;;;;;977.03;887.53;;;;;;;;;;4991000;28;20049;-62
2023/09/14 14:32:59;;;;;;;967.08;879.67;;;;;;;;;;4991475;28;20054;-62
2023/09/14 14:35:26;;;;;;;1056.18;877.55;;;;;;;;;;4987778;28;20504;-62
2023/09/14 14:37:52;;;;;;;964.03;875.42;;;;;;;;;;4987413;28;20074;-63
2023/09/14 14:40:19;;;;;;;964.03;875.65;;;;;;;;;;4991055;28;20043;-62
2023/09/14 14:43:09;;;;;;;959.72;873.00;;;;;;;;;;4991225;28;20062;-64
2023/09/14 14:45:36;;;;;;;962.40;874.17;;;;;;;;;;4987413;28;20050;-62